Malmstrom A F B, Montana
Current Conditions -  °F | °C
As of 9:06 AM on Tuesday 21 Oct 2014 (Local Time) from KGFA Reporting Station
Light Rain Light Rain  
Wind Chill: 52°   Ceiling: 8500
Heat Index: 52°   Visibility: 10mi
Dew Point: 36°   Wind: 2mph
Humidity: 54%   Direction: 340°NNW
Pressure: 29.67"   Gusts: NA
Location:  47.5102°N, 111.1959°W
Report Text: KGFA 211506Z AUTO 34002KT 10SM -RA BKN085 11/02 A2967 RMK AO2
Loading
Personal Weather Stations






























Interactive Weather Map New forecast layout! Learn more

10-Day Weather Forecast

Advertisements
Track Severe Weather on mobile